createdAt,value
2017-10-14T00:01:13.377Z,7.77
2017-10-14T00:03:41.461Z,7.90
2017-10-14T00:06:09.566Z,7.87
2017-10-14T00:08:37.669Z,7.80
2017-10-14T00:11:05.769Z,8.07
2017-10-14T00:13:33.888Z,7.40
2017-10-14T00:16:01.977Z,7.60
2017-10-14T00:18:30.079Z,7.90
2017-10-14T00:20:58.953Z,8.20
2017-10-14T00:23:27.182Z,8.43
2017-10-14T00:25:55.349Z,7.17
2017-10-14T00:28:23.429Z,8.00
2017-10-14T00:30:51.518Z,7.90
2017-10-14T00:33:20.664Z,7.87
2017-10-14T00:35:49.512Z,8.87
2017-10-14T00:38:17.631Z,8.40
2017-10-14T00:40:45.717Z,8.23
2017-10-14T00:43:13.798Z,8.73
2017-10-14T00:45:41.900Z,8.97
2017-10-14T00:48:09.988Z,8.20
2017-10-14T00:50:38.101Z,8.30
2017-10-14T00:53:06.188Z,9.00
2017-10-14T00:55:34.306Z,7.43
2017-10-14T00:58:02.396Z,8.23
2017-10-14T01:00:32.341Z,7.67
2017-10-14T01:03:00.659Z,8.20
2017-10-14T01:05:28.873Z,8.30
2017-10-14T01:07:57.777Z,9.00
2017-10-14T01:10:25.920Z,8.60
2017-10-14T01:12:54.551Z,8.53
2017-10-14T01:15:22.647Z,8.57
2017-10-14T01:17:50.763Z,8.10
2017-10-14T01:20:19.642Z,9.07
2017-10-14T01:22:47.749Z,9.63
2017-10-14T01:25:15.833Z,8.43
2017-10-14T01:27:43.947Z,8.33
2017-10-14T01:30:12.056Z,7.90
2017-10-14T01:32:40.140Z,9.13
2017-10-14T01:35:08.235Z,8.20
2017-10-14T01:37:36.402Z,7.90
2017-10-14T01:40:04.487Z,8.17
2017-10-14T01:42:32.615Z,7.60
2017-10-14T01:45:00.737Z,7.93
2017-10-14T01:47:28.833Z,7.63
2017-10-14T01:49:56.954Z,9.10
2017-10-14T01:52:25.124Z,7.87
2017-10-14T01:54:53.227Z,7.60
2017-10-14T01:57:21.384Z,8.83
2017-10-14T01:59:49.482Z,8.10
2017-10-14T02:02:17.595Z,7.43
2017-10-14T02:04:46.439Z,8.60
2017-10-14T02:07:14.535Z,9.23
2017-10-14T02:09:42.633Z,7.67
2017-10-14T02:12:10.731Z,8.40
2017-10-14T02:14:38.834Z,7.70
2017-10-14T02:17:06.911Z,8.27
2017-10-14T02:19:35.019Z,9.33
2017-10-14T02:22:03.124Z,7.23
2017-10-14T02:24:31.564Z,7.33
2017-10-14T02:26:59.656Z,7.90
2017-10-14T02:29:27.759Z,8.40
2017-10-14T02:31:55.910Z,8.70
2017-10-14T02:34:23.986Z,8.00
2017-10-14T02:36:52.842Z,7.10
2017-10-14T02:39:21.696Z,8.00
2017-10-14T02:41:49.779Z,8.60
2017-10-14T02:44:17.912Z,8.80
2017-10-14T02:46:45.988Z,8.97
2017-10-14T02:49:14.088Z,7.90
2017-10-14T02:51:42.184Z,9.37
2017-10-14T02:54:10.404Z,8.53
2017-10-14T02:56:38.563Z,8.70
2017-10-14T02:59:06.755Z,7.70
2017-10-14T03:01:34.863Z,8.00
2017-10-14T03:04:02.944Z,7.73
2017-10-14T03:06:31.012Z,8.80
2017-10-14T03:08:59.103Z,8.87
2017-10-14T03:11:27.996Z,8.83
2017-10-14T03:13:56.851Z,8.90
2017-10-14T03:16:25.028Z,8.30
2017-10-14T03:18:53.120Z,8.97
2017-10-14T03:21:21.195Z,8.40
2017-10-14T03:23:49.309Z,8.80
2017-10-14T03:26:17.388Z,9.07
2017-10-14T03:28:45.483Z,8.87
2017-10-14T03:31:13.607Z,9.17
2017-10-14T03:33:41.671Z,7.80
2017-10-14T03:36:09.763Z,8.57
2017-10-14T03:38:37.876Z,9.27
2017-10-14T03:41:05.956Z,8.33
2017-10-14T03:43:34.973Z,8.90
2017-10-14T03:46:03.056Z,8.40
2017-10-14T03:48:32.840Z,8.53
2017-10-14T03:51:01.155Z,8.77
2017-10-14T03:53:30.030Z,9.20
2017-10-14T03:55:58.136Z,8.57
2017-10-14T03:58:26.411Z,8.60
2017-10-14T04:00:54.727Z,8.93
2017-10-14T04:03:23.750Z,8.20
2017-10-14T04:05:51.848Z,8.00
2017-10-14T04:08:19.943Z,10.07
2017-10-14T04:10:48.060Z,8.77
2017-10-14T04:13:17.103Z,9.30
2017-10-14T04:15:45.189Z,8.37
2017-10-14T04:18:13.303Z,8.33
2017-10-14T04:20:41.401Z,8.03
2017-10-14T04:23:09.508Z,8.17
2017-10-14T04:25:37.688Z,8.10
2017-10-14T04:28:05.795Z,9.23
2017-10-14T04:30:33.879Z,8.70
2017-10-14T04:33:01.988Z,9.00
2017-10-14T04:35:30.091Z,9.37
2017-10-14T04:37:58.215Z,8.67
2017-10-14T04:40:26.351Z,8.37
2017-10-14T04:42:55.217Z,8.50
2017-10-14T04:45:23.324Z,8.93
2017-10-14T04:47:53.288Z,7.97
2017-10-14T04:50:22.321Z,7.70
2017-10-14T04:52:51.711Z,7.83
2017-10-14T04:55:19.823Z,7.63
2017-10-14T04:57:47.914Z,8.20
2017-10-14T05:00:15.991Z,8.77
2017-10-14T05:02:44.088Z,9.53
2017-10-14T05:05:12.188Z,8.97
2017-10-14T05:07:40.312Z,9.37
2017-10-14T05:10:08.387Z,8.50
2017-10-14T05:12:37.529Z,9.07
2017-10-14T05:15:05.624Z,8.73
2017-10-14T05:17:34.487Z,10.30
2017-10-14T05:20:02.587Z,8.40
2017-10-14T05:22:31.452Z,7.93
2017-10-14T05:24:59.972Z,8.73
2017-10-14T05:27:28.816Z,8.53
2017-10-14T05:29:56.890Z,9.67
2017-10-14T05:32:25.272Z,8.13
2017-10-14T05:34:53.364Z,7.57
2017-10-14T05:37:21.481Z,6.93
2017-10-14T05:39:49.564Z,7.90
2017-10-14T05:42:18.608Z,7.63
2017-10-14T05:44:46.705Z,7.90
2017-10-14T05:47:14.812Z,7.13
2017-10-14T05:49:42.975Z,7.67
2017-10-14T05:52:11.823Z,7.77
2017-10-14T05:54:41.027Z,7.50
2017-10-14T05:57:09.868Z,7.67
2017-10-14T05:59:37.972Z,6.93
2017-10-14T06:02:06.051Z,8.03
2017-10-14T06:04:34.903Z,7.70
2017-10-14T06:07:03.001Z,7.23
2017-10-14T06:09:31.093Z,7.10
2017-10-14T06:11:59.961Z,6.93
2017-10-14T06:14:28.036Z,6.70
2017-10-14T06:16:56.158Z,6.87
2017-10-14T06:19:24.230Z,7.30
2017-10-14T06:21:52.342Z,7.60
2017-10-14T06:24:20.482Z,8.20
2017-10-14T06:26:48.588Z,9.30
2017-10-14T06:29:17.899Z,10.10
2017-10-14T06:31:45.977Z,9.70
2017-10-14T06:34:14.828Z,8.70
2017-10-14T06:36:42.952Z,8.53
2017-10-14T06:39:11.071Z,9.30
2017-10-14T06:41:39.179Z,10.07
2017-10-14T06:44:07.366Z,10.60
2017-10-14T06:46:36.227Z,10.10
2017-10-14T06:49:04.371Z,9.83
2017-10-14T06:51:32.504Z,10.60
2017-10-14T06:54:00.621Z,10.63
2017-10-14T06:56:28.928Z,11.53
2017-10-14T06:58:58.519Z,9.90
2017-10-14T07:01:26.613Z,10.80
2017-10-14T07:03:54.723Z,10.93
2017-10-14T07:06:22.939Z,11.13
2017-10-14T07:08:51.481Z,11.60
2017-10-14T07:11:20.357Z,12.07
2017-10-14T07:13:48.463Z,11.50
2017-10-14T07:16:16.575Z,12.23
2017-10-14T07:18:44.695Z,14.00
2017-10-14T07:21:12.783Z,14.47
2017-10-14T07:23:40.949Z,13.33
2017-10-14T07:26:09.048Z,13.10
2017-10-14T07:28:37.152Z,11.97
2017-10-14T07:31:05.264Z,12.40
2017-10-14T07:33:33.351Z,12.60
2017-10-14T07:36:01.472Z,12.97
2017-10-14T07:38:29.549Z,11.20
2017-10-14T07:40:58.407Z,12.70
2017-10-14T07:43:26.516Z,12.30
2017-10-14T07:45:54.593Z,11.97
2017-10-14T07:48:23.485Z,12.27
2017-10-14T07:50:51.564Z,13.63
2017-10-14T07:53:19.685Z,13.50
2017-10-14T07:55:47.775Z,14.70
2017-10-14T07:58:15.891Z,15.43
2017-10-14T08:00:44.004Z,14.17
2017-10-14T08:03:12.095Z,13.70
2017-10-14T08:05:40.235Z,12.63
2017-10-14T08:08:08.339Z,12.53
2017-10-14T08:10:36.428Z,14.20
2017-10-14T08:13:04.560Z,15.47
2017-10-14T08:15:32.683Z,14.87
2017-10-14T08:18:00.780Z,14.27
2017-10-14T08:20:29.880Z,15.17
2017-10-14T08:22:57.981Z,12.43
2017-10-14T08:25:26.057Z,14.30
2017-10-14T08:27:54.191Z,14.20
2017-10-14T08:30:22.281Z,13.37
2017-10-14T08:32:50.387Z,13.90
2017-10-14T08:35:18.496Z,12.50
2017-10-14T08:37:47.376Z,13.60
2017-10-14T08:40:16.224Z,15.40
2017-10-14T08:42:44.332Z,15.87
2017-10-14T08:45:13.180Z,14.17
2017-10-14T08:47:41.261Z,14.13
2017-10-14T08:50:09.375Z,14.13
2017-10-14T08:52:37.475Z,13.50
2017-10-14T08:55:05.581Z,14.80
2017-10-14T08:57:33.687Z,14.13
2017-10-14T09:00:02.553Z,15.03
2017-10-14T09:02:30.674Z,14.07
2017-10-14T09:04:58.778Z,14.37
2017-10-14T09:07:26.911Z,13.20
2017-10-14T09:09:55.993Z,13.43
2017-10-14T09:12:24.096Z,13.50
2017-10-14T09:14:52.232Z,13.80
2017-10-14T09:17:21.101Z,13.60
2017-10-14T09:19:49.232Z,11.97
2017-10-14T09:22:17.348Z,14.07
2017-10-14T09:24:45.468Z,13.00
2017-10-14T09:27:13.579Z,12.83
2017-10-14T09:29:41.671Z,13.57
2017-10-14T09:32:09.768Z,13.63
2017-10-14T09:34:38.989Z,12.40
2017-10-14T09:37:07.083Z,12.93
2017-10-14T09:39:35.205Z,13.20
2017-10-14T09:42:03.297Z,13.73
2017-10-14T09:44:31.399Z,12.83
2017-10-14T09:46:59.511Z,13.53
2017-10-14T09:49:27.632Z,12.50
2017-10-14T09:51:55.717Z,14.23
2017-10-14T09:54:23.816Z,14.23
2017-10-14T09:56:52.169Z,14.40
2017-10-14T09:59:20.365Z,14.17
2017-10-14T10:01:48.489Z,13.70
2017-10-14T10:04:16.818Z,12.97
2017-10-14T10:06:45.860Z,14.23
2017-10-14T10:09:15.053Z,13.53
2017-10-14T10:11:43.251Z,13.50
2017-10-14T10:14:11.328Z,12.50
2017-10-14T10:16:39.444Z,13.77
2017-10-14T10:19:07.528Z,12.50
2017-10-14T10:21:36.408Z,11.73
2017-10-14T10:24:04.751Z,11.47
2017-10-14T10:26:32.886Z,11.80
2017-10-14T10:29:00.964Z,11.20
2017-10-14T10:31:29.045Z,10.70
2017-10-14T10:33:57.183Z,14.57
2017-10-14T10:36:25.480Z,11.10
2017-10-14T10:38:53.591Z,12.10
2017-10-14T10:41:21.688Z,10.57
2017-10-14T10:43:49.795Z,11.20
2017-10-14T10:46:17.903Z,10.60
2017-10-14T10:48:45.998Z,10.50
2017-10-14T10:51:15.033Z,11.50
2017-10-14T10:53:43.169Z,9.80
2017-10-14T10:56:11.267Z,10.30
2017-10-14T10:58:40.132Z,10.07
2017-10-14T11:01:08.233Z,9.50
2017-10-14T11:03:36.347Z,8.47
2017-10-14T11:06:05.435Z,8.93
2017-10-14T11:08:33.516Z,9.43
2017-10-14T11:11:01.622Z,10.20
2017-10-14T11:13:29.692Z,8.80
2017-10-14T11:15:57.807Z,8.47
2017-10-14T11:18:25.960Z,8.13
2017-10-14T11:20:54.108Z,8.90
2017-10-14T11:23:22.203Z,8.20
2017-10-14T11:25:50.280Z,9.17
2017-10-14T11:28:18.388Z,7.37
2017-10-14T11:30:46.516Z,7.13
2017-10-14T11:33:15.528Z,8.30
2017-10-14T11:35:44.430Z,7.77
2017-10-14T11:38:12.520Z,8.63
2017-10-14T11:40:40.635Z,8.23
2017-10-14T11:43:08.954Z,7.70
2017-10-14T11:45:37.064Z,9.10
2017-10-14T11:48:05.199Z,9.63
2017-10-14T11:50:33.284Z,8.67
2017-10-14T11:53:01.409Z,8.90
2017-10-14T11:55:29.514Z,9.17
2017-10-14T11:57:57.638Z,9.80
2017-10-14T12:00:25.713Z,8.93
2017-10-14T12:02:53.817Z,8.30
2017-10-14T12:05:21.910Z,8.67
2017-10-14T12:07:50.002Z,9.03
2017-10-14T12:10:18.144Z,9.17
2017-10-14T12:12:46.295Z,8.60
2017-10-14T12:15:14.658Z,6.80
2017-10-14T12:17:42.750Z,7.63
2017-10-14T12:20:10.859Z,6.63
2017-10-14T12:22:38.936Z,7.67
2017-10-14T12:25:07.157Z,6.67
2017-10-14T12:27:35.593Z,6.30
2017-10-14T12:30:03.692Z,6.63
2017-10-14T12:32:31.788Z,6.10
2017-10-14T12:34:59.890Z,5.80
2017-10-14T12:37:29.096Z,5.80
2017-10-14T12:39:57.164Z,5.80
2017-10-14T12:42:25.276Z,6.33
2017-10-14T12:44:53.355Z,5.60
2017-10-14T12:47:21.467Z,5.30
2017-10-14T12:49:50.344Z,4.97
2017-10-14T12:52:18.464Z,5.17
2017-10-14T12:54:46.543Z,4.77
2017-10-14T12:57:14.636Z,5.13
2017-10-14T12:59:42.740Z,4.90
2017-10-14T13:02:10.841Z,4.50
2017-10-14T13:04:39.024Z,4.80
2017-10-14T13:07:07.120Z,4.20
2017-10-14T13:09:35.213Z,3.90
2017-10-14T13:12:03.312Z,3.63
2017-10-14T13:14:31.390Z,4.30
2017-10-14T13:16:59.504Z,4.10
2017-10-14T13:19:27.590Z,4.30
2017-10-14T13:21:55.696Z,3.83
2017-10-14T13:24:24.568Z,3.47
2017-10-14T13:26:52.646Z,3.80
2017-10-14T13:29:21.519Z,3.70
2017-10-14T13:31:49.849Z,3.20
2017-10-14T13:34:17.935Z,3.13
2017-10-14T13:36:46.040Z,3.63
2017-10-14T13:39:14.142Z,3.50
2017-10-14T13:41:42.227Z,4.20
2017-10-14T13:44:10.315Z,3.57
2017-10-14T13:46:38.434Z,3.80
2017-10-14T13:49:06.504Z,3.47
2017-10-14T13:51:34.603Z,3.20
2017-10-14T13:54:03.468Z,3.83
2017-10-14T13:56:31.549Z,3.70
2017-10-14T13:58:59.667Z,3.80
2017-10-14T14:01:27.762Z,3.03
2017-10-14T14:03:55.861Z,3.00
2017-10-14T14:06:24.958Z,3.23
2017-10-14T14:08:53.065Z,3.40
2017-10-14T14:11:21.151Z,2.97
2017-10-14T14:13:49.260Z,3.40
2017-10-14T14:16:17.361Z,4.27
2017-10-14T14:18:45.442Z,3.30
2017-10-14T14:21:13.562Z,4.70
2017-10-14T14:23:41.661Z,4.23
2017-10-14T14:26:09.767Z,4.20
2017-10-14T14:28:38.033Z,4.17
2017-10-14T14:31:06.109Z,3.40
2017-10-14T14:33:35.018Z,3.63
2017-10-14T14:36:03.111Z,3.37
2017-10-14T14:38:31.209Z,3.63
2017-10-14T14:40:59.298Z,9.30
2017-10-14T14:43:28.157Z,10.20
2017-10-14T14:45:56.263Z,8.90
2017-10-14T14:48:25.121Z,7.10
2017-10-14T14:50:54.133Z,7.17
2017-10-14T14:53:22.272Z,6.63
2017-10-14T14:55:50.377Z,4.80
2017-10-14T14:58:18.483Z,5.13
2017-10-14T15:00:46.570Z,6.30
2017-10-14T15:03:14.671Z,6.33
2017-10-14T15:05:42.767Z,7.00
2017-10-14T15:08:10.976Z,5.60
2017-10-14T15:10:39.109Z,5.50
2017-10-14T15:13:07.207Z,4.60
2017-10-14T15:15:36.431Z,4.70
2017-10-14T15:18:04.518Z,4.60
2017-10-14T15:20:32.632Z,4.63
2017-10-14T15:23:00.709Z,5.10
2017-10-14T15:25:28.805Z,5.80
2017-10-14T15:27:57.740Z,5.27
2017-10-14T15:30:25.975Z,4.83
2017-10-14T15:32:54.089Z,4.10
2017-10-14T15:35:22.169Z,5.30
2017-10-14T15:37:50.272Z,5.67
2017-10-14T15:40:18.376Z,4.43
2017-10-14T15:42:46.780Z,4.30
2017-10-14T15:45:15.754Z,5.00
2017-10-14T15:47:44.094Z,5.93
2017-10-14T15:50:12.219Z,4.20
2017-10-14T15:52:40.303Z,4.70
2017-10-14T15:55:08.404Z,7.60
2017-10-14T15:57:36.486Z,3.53
2017-10-14T16:00:04.592Z,12.70
2017-10-14T16:02:32.748Z,4.70
2017-10-14T16:05:01.629Z,4.10
2017-10-14T16:07:29.740Z,7.00
2017-10-14T16:09:57.840Z,7.47
2017-10-14T16:12:25.960Z,3.63
2017-10-14T16:14:54.063Z,5.20
2017-10-14T16:17:22.150Z,4.40
2017-10-14T16:19:50.248Z,4.90
2017-10-14T16:22:18.340Z,4.17
2017-10-14T16:24:47.560Z,4.33
2017-10-14T16:27:16.631Z,4.27
2017-10-14T16:29:44.737Z,4.13
2017-10-14T16:32:13.021Z,4.97
2017-10-14T16:34:41.218Z,7.30
2017-10-14T16:37:09.331Z,6.43
2017-10-14T16:39:38.207Z,6.53
2017-10-14T16:42:06.320Z,6.93
2017-10-14T16:44:34.418Z,7.20
2017-10-14T16:47:02.570Z,6.47
2017-10-14T16:49:30.660Z,6.07
2017-10-14T16:51:58.817Z,7.77
2017-10-14T16:54:26.930Z,7.23
2017-10-14T16:56:55.022Z,6.60
2017-10-14T16:59:23.108Z,6.80
2017-10-14T17:01:51.208Z,7.00
2017-10-14T17:04:19.320Z,6.90
2017-10-14T17:06:47.404Z,8.40
2017-10-14T17:09:15.570Z,8.13
2017-10-14T17:11:43.696Z,8.87
2017-10-14T17:14:12.558Z,9.50
2017-10-14T17:16:41.437Z,7.80
2017-10-14T17:19:09.565Z,6.77
2017-10-14T17:21:37.643Z,5.50
2017-10-14T17:24:05.761Z,6.20
2017-10-14T17:26:33.881Z,7.33
2017-10-14T17:29:01.993Z,7.37
2017-10-14T17:31:30.114Z,7.50
2017-10-14T17:33:58.204Z,7.33
2017-10-14T17:36:26.310Z,8.30
2017-10-14T17:38:54.421Z,7.77
2017-10-14T17:41:22.525Z,8.43
2017-10-14T17:43:50.835Z,7.50
2017-10-14T17:46:18.933Z,7.30
2017-10-14T17:48:47.007Z,7.63
2017-10-14T17:51:15.128Z,7.97
2017-10-14T17:53:43.213Z,7.37
2017-10-14T17:56:11.317Z,8.07
2017-10-14T17:58:40.198Z,8.83
2017-10-14T18:01:09.075Z,10.30
2017-10-14T18:03:37.193Z,10.33
2017-10-14T18:06:05.349Z,11.27
2017-10-14T18:08:34.304Z,12.10
2017-10-14T18:11:03.488Z,11.00
2017-10-14T18:13:31.569Z,11.40
2017-10-14T18:15:59.687Z,11.80
2017-10-14T18:18:27.812Z,11.70
2017-10-14T18:20:56.836Z,10.23
2017-10-14T18:23:25.684Z,10.20
2017-10-14T18:25:53.780Z,9.90
2017-10-14T18:28:21.876Z,8.67
2017-10-14T18:30:50.729Z,8.57
2017-10-14T18:33:18.828Z,7.37
2017-10-14T18:35:47.680Z,7.53
2017-10-14T18:38:15.800Z,8.50
2017-10-14T18:40:43.892Z,6.00
2017-10-14T18:43:12.011Z,6.60
2017-10-14T18:45:40.105Z,7.53
2017-10-14T18:48:08.201Z,8.47
2017-10-14T18:50:36.295Z,9.70
2017-10-14T18:53:04.391Z,12.87
2017-10-14T18:55:34.076Z,10.33
2017-10-14T18:58:02.184Z,10.23
2017-10-14T19:00:30.284Z,10.33
2017-10-14T19:02:58.404Z,11.53
2017-10-14T19:05:27.591Z,10.80
2017-10-14T19:07:56.666Z,11.50
2017-10-14T19:10:24.775Z,10.83
2017-10-14T19:12:52.863Z,10.73
2017-10-14T19:15:21.065Z,9.87
2017-10-14T19:17:49.168Z,8.07
2017-10-14T19:20:17.285Z,8.37
2017-10-14T19:22:45.371Z,9.10
2017-10-14T19:25:14.062Z,10.70
2017-10-14T19:27:42.184Z,10.30
2017-10-14T19:30:10.268Z,9.93
2017-10-14T19:32:38.429Z,9.83
2017-10-14T19:35:06.539Z,10.70
2017-10-14T19:37:34.637Z,8.93
2017-10-14T19:40:03.644Z,8.90
2017-10-14T19:42:32.493Z,7.67
2017-10-14T19:45:00.602Z,8.17
2017-10-14T19:47:29.483Z,15.83
2017-10-14T19:49:58.380Z,11.10
2017-10-14T19:52:27.416Z,7.40
2017-10-14T19:54:55.528Z,6.97
2017-10-14T19:57:24.371Z,8.20
2017-10-14T19:59:52.461Z,5.83
2017-10-14T20:02:20.547Z,5.73
2017-10-14T20:04:48.656Z,5.80
2017-10-14T20:07:17.520Z,7.13
2017-10-14T20:09:45.617Z,10.27
2017-10-14T20:12:13.728Z,9.50
2017-10-14T20:14:41.813Z,9.37
2017-10-14T20:17:09.928Z,7.40
2017-10-14T20:19:38.998Z,8.20
2017-10-14T20:22:07.236Z,9.10
2017-10-14T20:24:35.349Z,8.97
2017-10-14T20:27:03.440Z,8.57
2017-10-14T20:29:31.571Z,7.60
2017-10-14T20:31:59.673Z,6.27
2017-10-14T20:34:27.766Z,6.10
2017-10-14T20:36:56.853Z,6.13
2017-10-14T20:39:24.948Z,5.53
2017-10-14T20:41:53.148Z,5.20
2017-10-14T20:44:21.248Z,5.13
2017-10-14T20:46:49.371Z,5.13
2017-10-14T20:49:17.488Z,5.53
2017-10-14T20:51:45.613Z,5.50
2017-10-14T20:54:13.732Z,5.30
2017-10-14T20:56:41.869Z,5.40
2017-10-14T20:59:09.969Z,4.93
2017-10-14T21:01:38.062Z,5.60
2017-10-14T21:04:06.163Z,5.90
2017-10-14T21:06:34.337Z,5.50
2017-10-14T21:09:02.428Z,4.53
2017-10-14T21:11:30.533Z,6.20
2017-10-14T21:13:58.633Z,5.57
2017-10-14T21:16:26.752Z,5.40
2017-10-14T21:18:54.837Z,5.53
2017-10-14T21:21:22.948Z,6.23
2017-10-14T21:23:51.080Z,6.03
2017-10-14T21:26:19.164Z,6.50
2017-10-14T21:28:48.028Z,7.87
2017-10-14T21:31:16.129Z,6.60
2017-10-14T21:33:44.245Z,7.40
2017-10-14T21:36:12.331Z,7.40
2017-10-14T21:38:40.452Z,6.40
2017-10-14T21:41:08.545Z,6.37
2017-10-14T21:43:37.777Z,5.70
2017-10-14T21:46:05.974Z,5.37
2017-10-14T21:48:34.086Z,5.33
2017-10-14T21:51:02.158Z,5.53
2017-10-14T21:53:31.292Z,5.60
2017-10-14T21:56:00.154Z,5.30
2017-10-14T21:58:28.252Z,5.17
2017-10-14T22:00:56.351Z,5.37
2017-10-14T22:03:24.436Z,7.47
2017-10-14T22:05:52.537Z,7.00
2017-10-14T22:08:20.634Z,7.40
2017-10-14T22:10:49.552Z,6.27
2017-10-14T22:13:17.644Z,6.87
2017-10-14T22:15:45.732Z,6.40
2017-10-14T22:18:13.836Z,5.90
2017-10-14T22:20:41.920Z,6.10
2017-10-14T22:23:10.039Z,6.30
2017-10-14T22:25:38.108Z,6.43
2017-10-14T22:28:06.265Z,6.40
2017-10-14T22:30:34.343Z,5.83
2017-10-14T22:33:02.436Z,7.33
2017-10-14T22:35:30.523Z,6.20
2017-10-14T22:37:58.688Z,5.20
2017-10-14T22:40:26.782Z,5.50
2017-10-14T22:42:54.901Z,5.10
2017-10-14T22:45:22.996Z,5.23
2017-10-14T22:47:51.084Z,5.57
2017-10-14T22:50:19.182Z,4.80
2017-10-14T22:52:48.997Z,6.37
2017-10-14T22:55:17.091Z,5.00
2017-10-14T22:57:45.212Z,5.40
2017-10-14T23:00:13.354Z,4.77
2017-10-14T23:02:41.456Z,4.90
2017-10-14T23:05:09.575Z,4.83
2017-10-14T23:07:38.428Z,5.60
2017-10-14T23:10:06.516Z,5.00
2017-10-14T23:12:35.372Z,6.30
2017-10-14T23:15:03.463Z,4.63
2017-10-14T23:17:31.582Z,4.80
2017-10-14T23:19:59.688Z,5.17
2017-10-14T23:22:27.760Z,4.37
2017-10-14T23:24:55.857Z,5.00
2017-10-14T23:27:23.954Z,4.93
2017-10-14T23:29:52.831Z,5.17
2017-10-14T23:32:21.697Z,4.90
2017-10-14T23:34:49.807Z,5.20
2017-10-14T23:37:17.923Z,5.30
2017-10-14T23:39:46.079Z,5.33
2017-10-14T23:42:14.180Z,8.33
2017-10-14T23:44:42.548Z,8.73
2017-10-14T23:47:10.636Z,9.00
2017-10-14T23:49:38.775Z,8.97
2017-10-14T23:52:06.881Z,10.37
2017-10-14T23:54:34.963Z,9.30
2017-10-14T23:57:03.094Z,9.70
2017-10-14T23:59:31.175Z,9.57
